Terminal Aerodrome Forecast
Issued by NWS Buffalo, NY

Home | Current Version | Previous Version | Text Only | Print | Product List | Glossary On
Versions: 1 2 3 4 5 6 7 8 9 10 11 12 13 14 15 16 17 18 19 20 21 22 23 24
000
FTUS41 KBUF 302300
TAFROC
TAF
KROC 302337Z 3100/3124 29006KT P6SM BKN060
     FM310700 20010KT P6SM VCTS OVC050CB
     FM310900 21009KT 6SM -SHRA VCTS OVC060CB
     FM311200 21008KT 6SM -SHRA OVC070
     FM311500 21010KT P6SM VCSH OVC060
     FM312000 25012G18KT P6SM BKN080=

USA.gov is the U.S. government's official web portal to all federal, state and local government web resources and services.